sensor_id;sensor_type;location;lat;lon;timestamp;P1;durP1;ratioP1;P2;durP2;ratioP2
73670;SDS011;61968;48.178;11.566;2022-12-29T00:01:19;2.45;;;1.23;;
73670;SDS011;61968;48.178;11.566;2022-12-29T00:03:45;1.23;;;0.93;;
73670;SDS011;61968;48.178;11.566;2022-12-29T00:06:12;1.40;;;1.10;;
73670;SDS011;61968;48.178;11.566;2022-12-29T00:08:38;2.15;;;1.33;;
73670;SDS011;61968;48.178;11.566;2022-12-29T00:13:33;2.70;;;1.45;;
73670;SDS011;61968;48.178;11.566;2022-12-29T00:16:18;0.80;;;0.80;;
73670;SDS011;61968;48.178;11.566;2022-12-29T00:18:44;2.85;;;1.35;;
73670;SDS011;61968;48.178;11.566;2022-12-29T00:23:57;1.02;;;0.70;;
73670;SDS011;61968;48.178;11.566;2022-12-29T00:26:48;1.20;;;0.88;;
73670;SDS011;61968;48.178;11.566;2022-12-29T00:29:38;1.20;;;1.10;;
73670;SDS011;61968;48.178;11.566;2022-12-29T00:32:22;1.13;;;1.02;;
73670;SDS011;61968;48.178;11.566;2022-12-29T00:35:07;1.75;;;1.15;;
73670;SDS011;61968;48.178;11.566;2022-12-29T00:37:35;1.08;;;0.80;;
73670;SDS011;61968;48.178;11.566;2022-12-29T00:40:21;0.77;;;0.77;;
73670;SDS011;61968;48.178;11.566;2022-12-29T00:43:06;2.42;;;0.70;;
73670;SDS011;61968;48.178;11.566;2022-12-29T00:45:50;1.05;;;0.90;;
73670;SDS011;61968;48.178;11.566;2022-12-29T00:51:03;2.08;;;1.05;;
73670;SDS011;61968;48.178;11.566;2022-12-29T00:53:29;1.58;;;0.82;;
73670;SDS011;61968;48.178;11.566;2022-12-29T00:58:23;1.10;;;1.00;;
73670;SDS011;61968;48.178;11.566;2022-12-29T01:00:53;0.93;;;0.80;;
73670;SDS011;61968;48.178;11.566;2022-12-29T01:03:27;0.75;;;0.75;;
73670;SDS011;61968;48.178;11.566;2022-12-29T01:08:19;0.50;;;0.50;;
73670;SDS011;61968;48.178;11.566;2022-12-29T01:13:11;1.83;;;0.90;;
73670;SDS011;61968;48.178;11.566;2022-12-29T01:15:39;0.88;;;0.82;;
73670;SDS011;61968;48.178;11.566;2022-12-29T01:18:06;0.98;;;0.80;;
73670;SDS011;61968;48.178;11.566;2022-12-29T01:20:32;4.55;;;1.00;;
73670;SDS011;61968;48.178;11.566;2022-12-29T01:22:59;0.60;;;0.60;;
73670;SDS011;61968;48.178;11.566;2022-12-29T01:25:25;1.23;;;1.13;;
73670;SDS011;61968;48.178;11.566;2022-12-29T01:27:51;0.90;;;0.60;;
73670;SDS011;61968;48.178;11.566;2022-12-29T01:32:46;0.60;;;0.60;;
73670;SDS011;61968;48.178;11.566;2022-12-29T01:35:20;0.63;;;0.55;;
73670;SDS011;61968;48.178;11.566;2022-12-29T01:37:47;2.25;;;0.50;;
73670;SDS011;61968;48.178;11.566;2022-12-29T01:40:13;0.77;;;0.77;;
73670;SDS011;61968;48.178;11.566;2022-12-29T01:42:40;1.05;;;0.60;;
73670;SDS011;61968;48.178;11.566;2022-12-29T01:45:08;1.67;;;0.63;;
73670;SDS011;61968;48.178;11.566;2022-12-29T01:47:37;1.23;;;0.57;;
73670;SDS011;61968;48.178;11.566;2022-12-29T01:50:08;0.65;;;0.60;;
73670;SDS011;61968;48.178;11.566;2022-12-29T01:52:38;7.40;;;0.68;;
73670;SDS011;61968;48.178;11.566;2022-12-29T01:55:10;1.33;;;0.70;;
73670;SDS011;61968;48.178;11.566;2022-12-29T01:57:38;0.85;;;0.77;;
73670;SDS011;61968;48.178;11.566;2022-12-29T02:00:09;0.82;;;0.60;;
73670;SDS011;61968;48.178;11.566;2022-12-29T02:02:38;1.15;;;0.70;;
73670;SDS011;61968;48.178;11.566;2022-12-29T02:05:09;2.08;;;0.90;;
73670;SDS011;61968;48.178;11.566;2022-12-29T02:07:39;1.02;;;0.75;;
73670;SDS011;61968;48.178;11.566;2022-12-29T02:10:07;0.55;;;0.55;;
73670;SDS011;61968;48.178;11.566;2022-12-29T02:15:00;1.60;;;0.55;;
73670;SDS011;61968;48.178;11.566;2022-12-29T02:17:34;1.15;;;0.73;;
73670;SDS011;61968;48.178;11.566;2022-12-29T02:23:37;0.73;;;0.73;;
73670;SDS011;61968;48.178;11.566;2022-12-29T02:26:23;2.17;;;0.75;;
73670;SDS011;61968;48.178;11.566;2022-12-29T02:32:12;1.02;;;0.80;;
73670;SDS011;61968;48.178;11.566;2022-12-29T02:34:47;0.93;;;0.60;;
73670;SDS011;61968;48.178;11.566;2022-12-29T02:37:22;0.80;;;0.52;;
73670;SDS011;61968;48.178;11.566;2022-12-29T02:39:56;1.58;;;0.70;;
73670;SDS011;61968;48.178;11.566;2022-12-29T02:42:33;0.50;;;0.50;;
73670;SDS011;61968;48.178;11.566;2022-12-29T02:45:07;1.05;;;0.70;;
73670;SDS011;61968;48.178;11.566;2022-12-29T02:47:48;0.95;;;0.60;;
73670;SDS011;61968;48.178;11.566;2022-12-29T02:50:22;0.73;;;0.70;;
73670;SDS011;61968;48.178;11.566;2022-12-29T02:52:54;0.85;;;0.65;;
73670;SDS011;61968;48.178;11.566;2022-12-29T02:55:25;0.90;;;0.50;;
73670;SDS011;61968;48.178;11.566;2022-12-29T02:58:05;0.88;;;0.80;;
73670;SDS011;61968;48.178;11.566;2022-12-29T03:00:42;8.95;;;0.73;;
73670;SDS011;61968;48.178;11.566;2022-12-29T03:03:24;1.42;;;0.32;;
73670;SDS011;61968;48.178;11.566;2022-12-29T03:06:15;0.50;;;0.50;;
73670;SDS011;61968;48.178;11.566;2022-12-29T03:08:53;0.60;;;0.60;;
73670;SDS011;61968;48.178;11.566;2022-12-29T03:11:26;0.80;;;0.70;;
73670;SDS011;61968;48.178;11.566;2022-12-29T03:14:17;2.95;;;0.77;;
73670;SDS011;61968;48.178;11.566;2022-12-29T03:17:14;0.40;;;0.40;;
73670;SDS011;61968;48.178;11.566;2022-12-29T03:19:51;0.57;;;0.57;;
73670;SDS011;61968;48.178;11.566;2022-12-29T03:22:25;0.65;;;0.63;;
73670;SDS011;61968;48.178;11.566;2022-12-29T03:24:58;1.45;;;0.47;;
73670;SDS011;61968;48.178;11.566;2022-12-29T03:27:31;0.40;;;0.40;;
73670;SDS011;61968;48.178;11.566;2022-12-29T03:30:02;0.47;;;0.47;;
73670;SDS011;61968;48.178;11.566;2022-12-29T03:32:31;0.85;;;0.68;;
73670;SDS011;61968;48.178;11.566;2022-12-29T03:35:02;2.03;;;0.50;;
73670;SDS011;61968;48.178;11.566;2022-12-29T03:37:30;0.52;;;0.50;;
73670;SDS011;61968;48.178;11.566;2022-12-29T03:40:03;0.85;;;0.85;;
73670;SDS011;61968;48.178;11.566;2022-12-29T03:42:30;1.45;;;0.60;;
73670;SDS011;61968;48.178;11.566;2022-12-29T03:45:00;0.50;;;0.50;;
73670;SDS011;61968;48.178;11.566;2022-12-29T03:49:53;0.57;;;0.57;;
73670;SDS011;61968;48.178;11.566;2022-12-29T03:52:21;1.10;;;0.50;;
73670;SDS011;61968;48.178;11.566;2022-12-29T03:54:47;0.90;;;0.60;;
73670;SDS011;61968;48.178;11.566;2022-12-29T03:59:40;1.58;;;0.68;;
73670;SDS011;61968;48.178;11.566;2022-12-29T04:04:33;0.63;;;0.60;;
73670;SDS011;61968;48.178;11.566;2022-12-29T04:09:27;0.65;;;0.43;;
73670;SDS011;61968;48.178;11.566;2022-12-29T04:11:54;1.05;;;0.73;;
73670;SDS011;61968;48.178;11.566;2022-12-29T04:14:21;0.52;;;0.52;;
73670;SDS011;61968;48.178;11.566;2022-12-29T04:16:47;0.50;;;0.50;;
73670;SDS011;61968;48.178;11.566;2022-12-29T04:19:14;0.43;;;0.43;;
73670;SDS011;61968;48.178;11.566;2022-12-29T04:24:06;1.00;;;0.50;;
73670;SDS011;61968;48.178;11.566;2022-12-29T04:26:34;0.45;;;0.45;;
73670;SDS011;61968;48.178;11.566;2022-12-29T04:29:01;1.02;;;0.70;;
73670;SDS011;61968;48.178;11.566;2022-12-29T04:31:27;1.00;;;0.50;;
73670;SDS011;61968;48.178;11.566;2022-12-29T04:33:54;3.17;;;0.57;;
73670;SDS011;61968;48.178;11.566;2022-12-29T04:36:22;0.63;;;0.50;;
73670;SDS011;61968;48.178;11.566;2022-12-29T04:38:49;1.80;;;0.65;;
73670;SDS011;61968;48.178;11.566;2022-12-29T04:41:15;1.05;;;0.57;;
73670;SDS011;61968;48.178;11.566;2022-12-29T04:43:43;1.00;;;0.50;;
73670;SDS011;61968;48.178;11.566;2022-12-29T04:46:10;0.65;;;0.50;;
73670;SDS011;61968;48.178;11.566;2022-12-29T04:51:03;0.40;;;0.40;;
73670;SDS011;61968;48.178;11.566;2022-12-29T04:53:29;0.63;;;0.63;;
73670;SDS011;61968;48.178;11.566;2022-12-29T04:55:56;1.38;;;0.40;;
73670;SDS011;61968;48.178;11.566;2022-12-29T05:00:50;0.55;;;0.55;;
73670;SDS011;61968;48.178;11.566;2022-12-29T05:03:17;1.60;;;0.45;;
73670;SDS011;61968;48.178;11.566;2022-12-29T05:05:43;1.00;;;0.90;;
73670;SDS011;61968;48.178;11.566;2022-12-29T05:08:10;0.77;;;0.60;;
73670;SDS011;61968;48.178;11.566;2022-12-29T05:10:36;0.52;;;0.52;;
73670;SDS011;61968;48.178;11.566;2022-12-29T05:15:29;0.77;;;0.57;;
73670;SDS011;61968;48.178;11.566;2022-12-29T05:17:57;0.57;;;0.50;;
73670;SDS011;61968;48.178;11.566;2022-12-29T05:20:23;0.98;;;0.60;;
73670;SDS011;61968;48.178;11.566;2022-12-29T05:22:50;0.82;;;0.60;;
73670;SDS011;61968;48.178;11.566;2022-12-29T05:27:42;0.30;;;0.30;;
73670;SDS011;61968;48.178;11.566;2022-12-29T05:30:09;1.65;;;0.65;;
73670;SDS011;61968;48.178;11.566;2022-12-29T05:32:36;0.88;;;0.52;;
73670;SDS011;61968;48.178;11.566;2022-12-29T05:35:05;0.60;;;0.50;;
73670;SDS011;61968;48.178;11.566;2022-12-29T05:37:32;1.00;;;0.80;;
73670;SDS011;61968;48.178;11.566;2022-12-29T05:39:58;1.50;;;1.33;;
73670;SDS011;61968;48.178;11.566;2022-12-29T05:42:25;2.20;;;1.05;;
73670;SDS011;61968;48.178;11.566;2022-12-29T05:44:51;0.75;;;0.50;;
73670;SDS011;61968;48.178;11.566;2022-12-29T05:47:18;0.75;;;0.60;;
73670;SDS011;61968;48.178;11.566;2022-12-29T05:52:12;2.13;;;0.80;;
73670;SDS011;61968;48.178;11.566;2022-12-29T05:54:39;1.02;;;0.65;;
73670;SDS011;61968;48.178;11.566;2022-12-29T05:59:32;1.15;;;0.63;;
73670;SDS011;61968;48.178;11.566;2022-12-29T06:01:58;0.68;;;0.50;;
73670;SDS011;61968;48.178;11.566;2022-12-29T06:04:24;1.17;;;0.70;;
73670;SDS011;61968;48.178;11.566;2022-12-29T06:06:51;0.93;;;0.77;;
73670;SDS011;61968;48.178;11.566;2022-12-29T06:09:19;4.18;;;0.95;;
73670;SDS011;61968;48.178;11.566;2022-12-29T06:11:45;1.92;;;1.40;;
73670;SDS011;61968;48.178;11.566;2022-12-29T06:16:38;0.52;;;0.50;;
73670;SDS011;61968;48.178;11.566;2022-12-29T06:19:04;1.10;;;0.55;;
73670;SDS011;61968;48.178;11.566;2022-12-29T06:23:57;2.63;;;0.75;;
73670;SDS011;61968;48.178;11.566;2022-12-29T06:26:25;1.05;;;0.75;;
73670;SDS011;61968;48.178;11.566;2022-12-29T06:28:51;1.33;;;0.75;;
73670;SDS011;61968;48.178;11.566;2022-12-29T06:33:44;0.47;;;0.47;;
73670;SDS011;61968;48.178;11.566;2022-12-29T06:38:37;0.80;;;0.60;;
73670;SDS011;61968;48.178;11.566;2022-12-29T06:43:31;1.27;;;1.08;;
73670;SDS011;61968;48.178;11.566;2022-12-29T06:45:58;1.17;;;0.77;;
73670;SDS011;61968;48.178;11.566;2022-12-29T06:48:25;3.28;;;0.65;;
73670;SDS011;61968;48.178;11.566;2022-12-29T06:53:17;3.42;;;0.50;;
73670;SDS011;61968;48.178;11.566;2022-12-29T06:58:10;0.98;;;0.60;;
73670;SDS011;61968;48.178;11.566;2022-12-29T07:03:04;2.05;;;0.73;;
73670;SDS011;61968;48.178;11.566;2022-12-29T07:07:57;0.63;;;0.60;;
73670;SDS011;61968;48.178;11.566;2022-12-29T07:10:25;0.65;;;0.65;;
73670;SDS011;61968;48.178;11.566;2022-12-29T07:12:51;0.73;;;0.73;;
73670;SDS011;61968;48.178;11.566;2022-12-29T07:15:18;1.13;;;0.60;;
73670;SDS011;61968;48.178;11.566;2022-12-29T07:20:14;1.23;;;0.85;;
73670;SDS011;61968;48.178;11.566;2022-12-29T07:22:41;0.80;;;0.80;;
73670;SDS011;61968;48.178;11.566;2022-12-29T07:25:08;1.27;;;0.80;;
73670;SDS011;61968;48.178;11.566;2022-12-29T07:27:35;1.17;;;0.65;;
73670;SDS011;61968;48.178;11.566;2022-12-29T07:30:01;1.17;;;1.08;;
73670;SDS011;61968;48.178;11.566;2022-12-29T07:32:28;2.10;;;0.70;;
73670;SDS011;61968;48.178;11.566;2022-12-29T07:34:59;2.35;;;1.00;;
73670;SDS011;61968;48.178;11.566;2022-12-29T07:37:25;4.28;;;0.90;;
73670;SDS011;61968;48.178;11.566;2022-12-29T07:42:18;0.75;;;0.60;;
73670;SDS011;61968;48.178;11.566;2022-12-29T07:47:11;1.60;;;0.70;;
73670;SDS011;61968;48.178;11.566;2022-12-29T07:52:05;1.35;;;1.10;;
73670;SDS011;61968;48.178;11.566;2022-12-29T07:54:31;4.80;;;0.80;;
73670;SDS011;61968;48.178;11.566;2022-12-29T07:56:58;2.40;;;1.50;;
73670;SDS011;61968;48.178;11.566;2022-12-29T07:59:25;2.38;;;0.95;;
73670;SDS011;61968;48.178;11.566;2022-12-29T08:01:52;0.90;;;0.70;;
73670;SDS011;61968;48.178;11.566;2022-12-29T08:04:19;1.35;;;0.70;;
73670;SDS011;61968;48.178;11.566;2022-12-29T08:06:45;2.15;;;0.70;;
73670;SDS011;61968;48.178;11.566;2022-12-29T08:09:13;2.60;;;1.15;;
73670;SDS011;61968;48.178;11.566;2022-12-29T08:11:40;1.63;;;0.80;;
73670;SDS011;61968;48.178;11.566;2022-12-29T08:14:07;0.70;;;0.70;;
73670;SDS011;61968;48.178;11.566;2022-12-29T08:19:00;2.70;;;1.10;;
73670;SDS011;61968;48.178;11.566;2022-12-29T08:23:53;1.00;;;0.80;;
73670;SDS011;61968;48.178;11.566;2022-12-29T08:26:21;1.00;;;0.80;;
73670;SDS011;61968;48.178;11.566;2022-12-29T08:28:48;0.70;;;0.70;;
73670;SDS011;61968;48.178;11.566;2022-12-29T08:31:14;0.70;;;0.70;;
73670;SDS011;61968;48.178;11.566;2022-12-29T08:36:07;1.10;;;1.00;;
73670;SDS011;61968;48.178;11.566;2022-12-29T08:38:35;2.80;;;0.90;;
73670;SDS011;61968;48.178;11.566;2022-12-29T08:43:29;1.77;;;1.38;;
73670;SDS011;61968;48.178;11.566;2022-12-29T08:45:56;1.67;;;0.70;;
73670;SDS011;61968;48.178;11.566;2022-12-29T08:48:23;2.75;;;0.98;;
73670;SDS011;61968;48.178;11.566;2022-12-29T08:50:50;1.02;;;0.93;;
73670;SDS011;61968;48.178;11.566;2022-12-29T08:53:16;0.80;;;0.77;;
73670;SDS011;61968;48.178;11.566;2022-12-29T08:55:44;1.27;;;0.70;;
73670;SDS011;61968;48.178;11.566;2022-12-29T08:58:11;1.30;;;0.80;;
73670;SDS011;61968;48.178;11.566;2022-12-29T09:00:40;3.20;;;0.82;;
73670;SDS011;61968;48.178;11.566;2022-12-29T09:03:08;1.05;;;0.95;;
73670;SDS011;61968;48.178;11.566;2022-12-29T09:08:00;2.05;;;0.88;;
73670;SDS011;61968;48.178;11.566;2022-12-29T09:12:53;1.42;;;0.70;;
73670;SDS011;61968;48.178;11.566;2022-12-29T09:17:48;3.50;;;0.77;;
73670;SDS011;61968;48.178;11.566;2022-12-29T09:20:15;2.55;;;0.70;;
73670;SDS011;61968;48.178;11.566;2022-12-29T09:22:44;1.85;;;1.02;;
73670;SDS011;61968;48.178;11.566;2022-12-29T09:25:12;4.38;;;0.93;;
73670;SDS011;61968;48.178;11.566;2022-12-29T09:27:39;0.68;;;0.68;;
73670;SDS011;61968;48.178;11.566;2022-12-29T09:30:06;0.88;;;0.80;;
73670;SDS011;61968;48.178;11.566;2022-12-29T09:32:35;1.45;;;0.80;;
73670;SDS011;61968;48.178;11.566;2022-12-29T09:35:03;1.40;;;0.77;;
73670;SDS011;61968;48.178;11.566;2022-12-29T09:37:30;2.15;;;0.70;;
73670;SDS011;61968;48.178;11.566;2022-12-29T09:42:23;3.30;;;0.85;;
73670;SDS011;61968;48.178;11.566;2022-12-29T09:45:00;0.77;;;0.70;;
73670;SDS011;61968;48.178;11.566;2022-12-29T09:47:34;2.25;;;0.80;;
73670;SDS011;61968;48.178;11.566;2022-12-29T09:50:04;1.05;;;0.77;;
73670;SDS011;61968;48.178;11.566;2022-12-29T09:52:36;1.45;;;0.95;;
73670;SDS011;61968;48.178;11.566;2022-12-29T09:55:10;1.85;;;1.02;;
73670;SDS011;61968;48.178;11.566;2022-12-29T09:57:43;1.00;;;0.55;;
73670;SDS011;61968;48.178;11.566;2022-12-29T10:00:14;2.05;;;0.52;;
73670;SDS011;61968;48.178;11.566;2022-12-29T10:02:43;1.40;;;0.77;;
73670;SDS011;61968;48.178;11.566;2022-12-29T10:05:16;1.50;;;0.68;;
73670;SDS011;61968;48.178;11.566;2022-12-29T10:07:50;1.77;;;1.02;;
73670;SDS011;61968;48.178;11.566;2022-12-29T10:10:26;1.50;;;0.90;;
73670;SDS011;61968;48.178;11.566;2022-12-29T10:13:01;0.93;;;0.73;;
73670;SDS011;61968;48.178;11.566;2022-12-29T10:15:40;2.10;;;0.90;;
73670;SDS011;61968;48.178;11.566;2022-12-29T10:18:23;1.35;;;1.05;;
73670;SDS011;61968;48.178;11.566;2022-12-29T10:21:05;0.73;;;0.73;;
73670;SDS011;61968;48.178;11.566;2022-12-29T10:23:43;3.15;;;0.95;;
73670;SDS011;61968;48.178;11.566;2022-12-29T10:26:14;1.20;;;0.82;;
73670;SDS011;61968;48.178;11.566;2022-12-29T10:28:45;1.60;;;0.90;;
73670;SDS011;61968;48.178;11.566;2022-12-29T10:31:15;1.38;;;0.90;;
73670;SDS011;61968;48.178;11.566;2022-12-29T10:33:48;2.28;;;1.27;;
73670;SDS011;61968;48.178;11.566;2022-12-29T10:36:18;1.40;;;1.10;;
73670;SDS011;61968;48.178;11.566;2022-12-29T10:38:52;2.42;;;0.90;;
73670;SDS011;61968;48.178;11.566;2022-12-29T10:41:25;1.60;;;1.00;;
73670;SDS011;61968;48.178;11.566;2022-12-29T10:43:59;4.10;;;0.80;;
73670;SDS011;61968;48.178;11.566;2022-12-29T10:46:27;1.13;;;0.88;;
73670;SDS011;61968;48.178;11.566;2022-12-29T10:48:56;0.85;;;0.85;;
73670;SDS011;61968;48.178;11.566;2022-12-29T10:51:25;1.38;;;0.85;;
73670;SDS011;61968;48.178;11.566;2022-12-29T10:53:57;2.03;;;0.98;;
73670;SDS011;61968;48.178;11.566;2022-12-29T10:56:31;1.92;;;1.02;;
73670;SDS011;61968;48.178;11.566;2022-12-29T10:59:02;1.30;;;1.17;;
73670;SDS011;61968;48.178;11.566;2022-12-29T11:01:35;1.00;;;1.00;;
73670;SDS011;61968;48.178;11.566;2022-12-29T11:04:20;3.45;;;1.27;;
73670;SDS011;61968;48.178;11.566;2022-12-29T11:06:57;1.50;;;1.13;;
73670;SDS011;61968;48.178;11.566;2022-12-29T11:09:24;0.55;;;0.43;;
73670;SDS011;61968;48.178;11.566;2022-12-29T11:11:54;1.63;;;1.00;;
73670;SDS011;61968;48.178;11.566;2022-12-29T11:14:25;2.67;;;1.17;;
73670;SDS011;61968;48.178;11.566;2022-12-29T11:16:56;2.60;;;1.13;;
73670;SDS011;61968;48.178;11.566;2022-12-29T11:19:25;3.38;;;1.10;;
73670;SDS011;61968;48.178;11.566;2022-12-29T11:21:56;1.23;;;1.10;;
73670;SDS011;61968;48.178;11.566;2022-12-29T11:24:43;2.05;;;0.80;;
73670;SDS011;61968;48.178;11.566;2022-12-29T11:27:14;1.20;;;0.80;;
73670;SDS011;61968;48.178;11.566;2022-12-29T11:32:11;1.33;;;1.00;;
73670;SDS011;61968;48.178;11.566;2022-12-29T11:34:39;1.40;;;0.70;;
73670;SDS011;61968;48.178;11.566;2022-12-29T11:37:06;1.55;;;1.00;;
73670;SDS011;61968;48.178;11.566;2022-12-29T11:39:38;1.27;;;0.82;;
73670;SDS011;61968;48.178;11.566;2022-12-29T11:42:13;1.02;;;0.50;;
73670;SDS011;61968;48.178;11.566;2022-12-29T11:44:42;3.28;;;1.65;;
73670;SDS011;61968;48.178;11.566;2022-12-29T11:47:12;3.40;;;1.20;;
73670;SDS011;61968;48.178;11.566;2022-12-29T11:49:49;1.08;;;0.73;;
73670;SDS011;61968;48.178;11.566;2022-12-29T11:52:16;2.03;;;1.02;;
73670;SDS011;61968;48.178;11.566;2022-12-29T11:54:50;1.10;;;0.60;;
73670;SDS011;61968;48.178;11.566;2022-12-29T11:57:17;1.45;;;0.57;;
73670;SDS011;61968;48.178;11.566;2022-12-29T11:59:48;2.22;;;0.90;;
73670;SDS011;61968;48.178;11.566;2022-12-29T12:02:22;1.45;;;0.57;;
73670;SDS011;61968;48.178;11.566;2022-12-29T12:04:58;0.88;;;0.88;;
73670;SDS011;61968;48.178;11.566;2022-12-29T12:07:33;1.08;;;0.50;;
73670;SDS011;61968;48.178;11.566;2022-12-29T12:10:10;0.98;;;0.93;;
73670;SDS011;61968;48.178;11.566;2022-12-29T12:12:44;1.00;;;0.25;;
73670;SDS011;61968;48.178;11.566;2022-12-29T12:15:17;0.52;;;0.50;;
73670;SDS011;61968;48.178;11.566;2022-12-29T12:17:47;3.45;;;0.70;;
73670;SDS011;61968;48.178;11.566;2022-12-29T12:20:20;2.30;;;0.60;;
73670;SDS011;61968;48.178;11.566;2022-12-29T12:22:53;1.15;;;0.60;;
73670;SDS011;61968;48.178;11.566;2022-12-29T12:25:30;1.67;;;0.68;;
73670;SDS011;61968;48.178;11.566;2022-12-29T12:28:05;1.98;;;1.02;;
73670;SDS011;61968;48.178;11.566;2022-12-29T12:30:38;2.08;;;0.75;;
73670;SDS011;61968;48.178;11.566;2022-12-29T12:33:13;1.15;;;1.15;;
73670;SDS011;61968;48.178;11.566;2022-12-29T12:35:46;11.20;;;4.45;;
73670;SDS011;61968;48.178;11.566;2022-12-29T12:38:20;6.70;;;3.22;;
73670;SDS011;61968;48.178;11.566;2022-12-29T12:41:03;1.50;;;1.02;;
73670;SDS011;61968;48.178;11.566;2022-12-29T12:43:45;0.70;;;0.68;;
73670;SDS011;61968;48.178;11.566;2022-12-29T12:46:24;1.63;;;1.10;;
73670;SDS011;61968;48.178;11.566;2022-12-29T12:49:04;5.15;;;2.85;;
73670;SDS011;61968;48.178;11.566;2022-12-29T12:51:45;11.45;;;5.45;;
73670;SDS011;61968;48.178;11.566;2022-12-29T12:54:25;6.13;;;2.08;;
73670;SDS011;61968;48.178;11.566;2022-12-29T12:57:05;1.75;;;0.98;;
73670;SDS011;61968;48.178;11.566;2022-12-29T13:02:25;1.42;;;0.52;;
73670;SDS011;61968;48.178;11.566;2022-12-29T13:07:59;0.60;;;0.60;;
73670;SDS011;61968;48.178;11.566;2022-12-29T13:10:50;1.25;;;1.15;;
73670;SDS011;61968;48.178;11.566;2022-12-29T13:16:23;5.65;;;0.60;;
73670;SDS011;61968;48.178;11.566;2022-12-29T13:18:59;0.52;;;0.52;;
73670;SDS011;61968;48.178;11.566;2022-12-29T13:21:38;0.73;;;0.73;;
73670;SDS011;61968;48.178;11.566;2022-12-29T13:24:19;0.88;;;0.73;;
73670;SDS011;61968;48.178;11.566;2022-12-29T13:26:54;4.72;;;1.70;;
73670;SDS011;61968;48.178;11.566;2022-12-29T13:29:30;0.70;;;0.70;;
73670;SDS011;61968;48.178;11.566;2022-12-29T13:32:02;3.03;;;0.90;;
73670;SDS011;61968;48.178;11.566;2022-12-29T13:34:43;1.23;;;0.60;;
73670;SDS011;61968;48.178;11.566;2022-12-29T13:37:20;2.05;;;0.60;;
73670;SDS011;61968;48.178;11.566;2022-12-29T13:39:52;2.13;;;0.90;;
73670;SDS011;61968;48.178;11.566;2022-12-29T13:42:23;3.20;;;0.85;;
73670;SDS011;61968;48.178;11.566;2022-12-29T13:44:54;4.40;;;0.80;;
73670;SDS011;61968;48.178;11.566;2022-12-29T13:47:26;1.33;;;0.70;;
73670;SDS011;61968;48.178;11.566;2022-12-29T13:49:57;0.70;;;0.70;;
73670;SDS011;61968;48.178;11.566;2022-12-29T13:52:28;0.88;;;0.88;;
73670;SDS011;61968;48.178;11.566;2022-12-29T13:55:02;4.63;;;1.80;;
73670;SDS011;61968;48.178;11.566;2022-12-29T13:57:45;3.88;;;2.15;;
73670;SDS011;61968;48.178;11.566;2022-12-29T14:00:22;3.03;;;1.02;;
73670;SDS011;61968;48.178;11.566;2022-12-29T14:05:45;9.45;;;3.38;;
73670;SDS011;61968;48.178;11.566;2022-12-29T14:08:31;2.50;;;1.75;;
73670;SDS011;61968;48.178;11.566;2022-12-29T14:11:02;3.97;;;2.60;;
73670;SDS011;61968;48.178;11.566;2022-12-29T14:13:36;2.85;;;1.50;;
73670;SDS011;61968;48.178;11.566;2022-12-29T14:16:06;2.65;;;1.38;;
73670;SDS011;61968;48.178;11.566;2022-12-29T14:18:41;1.70;;;1.10;;
73670;SDS011;61968;48.178;11.566;2022-12-29T14:21:10;5.85;;;3.30;;
73670;SDS011;61968;48.178;11.566;2022-12-29T14:23:47;4.25;;;1.92;;
73670;SDS011;61968;48.178;11.566;2022-12-29T14:26:15;8.68;;;3.85;;
73670;SDS011;61968;48.178;11.566;2022-12-29T14:29:00;5.70;;;3.03;;
73670;SDS011;61968;48.178;11.566;2022-12-29T14:31:44;1.40;;;1.13;;
73670;SDS011;61968;48.178;11.566;2022-12-29T14:34:27;2.55;;;1.10;;
73670;SDS011;61968;48.178;11.566;2022-12-29T14:36:56;0.93;;;0.77;;
73670;SDS011;61968;48.178;11.566;2022-12-29T14:39:35;0.60;;;0.60;;
73670;SDS011;61968;48.178;11.566;2022-12-29T14:42:06;3.95;;;1.80;;
73670;SDS011;61968;48.178;11.566;2022-12-29T14:44:45;10.02;;;4.63;;
73670;SDS011;61968;48.178;11.566;2022-12-29T14:47:16;23.92;;;9.50;;
73670;SDS011;61968;48.178;11.566;2022-12-29T14:49:46;12.07;;;5.70;;
73670;SDS011;61968;48.178;11.566;2022-12-29T14:52:14;2.90;;;1.27;;
73670;SDS011;61968;48.178;11.566;2022-12-29T14:54:51;3.15;;;1.52;;
73670;SDS011;61968;48.178;11.566;2022-12-29T14:57:19;7.03;;;3.92;;
73670;SDS011;61968;48.178;11.566;2022-12-29T14:59:52;11.25;;;5.93;;
73670;SDS011;61968;48.178;11.566;2022-12-29T15:02:23;31.85;;;14.82;;
73670;SDS011;61968;48.178;11.566;2022-12-29T15:04:52;33.38;;;16.10;;
73670;SDS011;61968;48.178;11.566;2022-12-29T15:07:24;15.55;;;6.65;;
73670;SDS011;61968;48.178;11.566;2022-12-29T15:09:54;3.10;;;1.35;;
73670;SDS011;61968;48.178;11.566;2022-12-29T15:14:57;1.63;;;1.13;;
73670;SDS011;61968;48.178;11.566;2022-12-29T15:17:27;12.43;;;5.65;;
73670;SDS011;61968;48.178;11.566;2022-12-29T15:19:55;8.13;;;3.00;;
73670;SDS011;61968;48.178;11.566;2022-12-29T15:22:23;26.10;;;12.07;;
73670;SDS011;61968;48.178;11.566;2022-12-29T15:24:50;10.95;;;5.32;;
73670;SDS011;61968;48.178;11.566;2022-12-29T15:27:20;110.68;;;48.25;;
73670;SDS011;61968;48.178;11.566;2022-12-29T15:29:48;90.38;;;37.20;;
73670;SDS011;61968;48.178;11.566;2022-12-29T15:32:23;16.80;;;7.15;;
73670;SDS011;61968;48.178;11.566;2022-12-29T15:34:53;21.42;;;10.40;;
73670;SDS011;61968;48.178;11.566;2022-12-29T15:37:22;8.20;;;3.35;;
73670;SDS011;61968;48.178;11.566;2022-12-29T15:39:50;3.22;;;2.03;;
73670;SDS011;61968;48.178;11.566;2022-12-29T15:42:33;23.85;;;10.38;;
73670;SDS011;61968;48.178;11.566;2022-12-29T15:45:16;17.25;;;8.77;;
73670;SDS011;61968;48.178;11.566;2022-12-29T15:47:43;7.63;;;4.82;;
73670;SDS011;61968;48.178;11.566;2022-12-29T15:50:17;105.30;;;51.90;;
73670;SDS011;61968;48.178;11.566;2022-12-29T15:52:49;195.63;;;85.85;;
73670;SDS011;61968;48.178;11.566;2022-12-29T15:55:20;78.60;;;32.58;;
73670;SDS011;61968;48.178;11.566;2022-12-29T15:57:55;39.80;;;18.73;;
73670;SDS011;61968;48.178;11.566;2022-12-29T16:00:24;46.65;;;21.88;;
73670;SDS011;61968;48.178;11.566;2022-12-29T16:02:53;55.78;;;24.00;;
73670;SDS011;61968;48.178;11.566;2022-12-29T16:05:25;46.80;;;19.10;;
73670;SDS011;61968;48.178;11.566;2022-12-29T16:07:59;10.65;;;5.28;;
73670;SDS011;61968;48.178;11.566;2022-12-29T16:10:27;2.95;;;1.30;;
73670;SDS011;61968;48.178;11.566;2022-12-29T16:13:02;5.85;;;3.03;;
73670;SDS011;61968;48.178;11.566;2022-12-29T16:15:32;13.60;;;5.63;;
73670;SDS011;61968;48.178;11.566;2022-12-29T16:17:59;6.20;;;2.38;;
73670;SDS011;61968;48.178;11.566;2022-12-29T16:20:33;3.40;;;2.20;;
73670;SDS011;61968;48.178;11.566;2022-12-29T16:23:08;1.23;;;0.90;;
73670;SDS011;61968;48.178;11.566;2022-12-29T16:25:45;11.77;;;4.72;;
73670;SDS011;61968;48.178;11.566;2022-12-29T16:28:17;40.15;;;16.48;;
73670;SDS011;61968;48.178;11.566;2022-12-29T16:30:46;37.15;;;15.98;;
73670;SDS011;61968;48.178;11.566;2022-12-29T16:33:28;12.32;;;5.75;;
73670;SDS011;61968;48.178;11.566;2022-12-29T16:36:02;22.00;;;9.90;;
73670;SDS011;61968;48.178;11.566;2022-12-29T16:38:48;138.45;;;55.72;;
73670;SDS011;61968;48.178;11.566;2022-12-29T16:41:25;112.30;;;45.65;;
73670;SDS011;61968;48.178;11.566;2022-12-29T16:46:43;116.53;;;59.55;;
73670;SDS011;61968;48.178;11.566;2022-12-29T16:49:22;89.13;;;39.83;;
73670;SDS011;61968;48.178;11.566;2022-12-29T16:51:50;349.83;;;149.95;;
73670;SDS011;61968;48.178;11.566;2022-12-29T16:54:19;179.27;;;80.90;;
73670;SDS011;61968;48.178;11.566;2022-12-29T16:56:49;210.95;;;89.28;;
73670;SDS011;61968;48.178;11.566;2022-12-29T16:59:19;54.35;;;24.05;;